Terminal Aerodrome Forecast
Issued by NWS

Home | Current Version | Previous Version | Text Only | Print | Product List | Glossary On
Versions: 1 2 3 4 5 6 7 8 9 10 11 12 13 14 15 16 17 18 19 20 21 22 23
000
FTUS43 KLSX 252100 AAB
TAFCPS
TAF AMD
KCPS 252107Z 2521/2618 35012KT 3SM -RA BR SCT009 OVC012
      TEMPO 2521/2524 BKN009
     FM260000 35015G25KT 2SM -SN BR OVC006
     FM260200 33015G25KT P6SM OVC012
     FM260800 32008KT P6SM OVC010=

USA.gov is the U.S. government's official web portal to all federal, state and local government web resources and services.